createdAt,value
2023-01-29T00:02:05.647Z,-0.98
2023-01-29T00:04:34.287Z,-1.10
2023-01-29T00:07:02.367Z,-1.20
2023-01-29T00:09:31.471Z,-1.27
2023-01-29T00:11:59.716Z,-1.28
2023-01-29T00:14:28.690Z,-1.23
2023-01-29T00:16:56.914Z,-1.13
2023-01-29T00:19:26.435Z,-0.95
2023-01-29T00:21:54.726Z,-0.85
2023-01-29T00:24:23.048Z,-0.80
2023-01-29T00:26:51.277Z,-0.77
2023-01-29T00:29:19.692Z,-0.73
2023-01-29T00:31:47.809Z,-0.71
2023-01-29T00:34:15.891Z,-0.66
2023-01-29T00:36:46.468Z,-0.59
2023-01-29T00:39:14.512Z,-0.49
2023-01-29T00:41:59.951Z,-0.42
2023-01-29T00:44:45.612Z,-0.39
2023-01-29T00:47:27.417Z,-0.38
2023-01-29T00:49:55.576Z,-0.40
2023-01-29T00:52:25.700Z,-0.34
2023-01-29T00:54:54.676Z,-0.23
2023-01-29T00:57:22.959Z,-0.20
2023-01-29T00:59:51.031Z,-0.14
2023-01-29T01:02:36.728Z,-0.15
2023-01-29T01:05:06.266Z,-0.14
2023-01-29T01:07:35.769Z,-0.12
2023-01-29T01:10:21.127Z,-0.07
2023-01-29T01:12:50.719Z,-0.01
2023-01-29T01:15:19.434Z,-0.01
2023-01-29T01:17:48.983Z,-0.02
2023-01-29T01:20:17.669Z,-0.07
2023-01-29T01:22:47.239Z,-0.11
2023-01-29T01:25:15.514Z,-0.16
2023-01-29T01:27:43.606Z,-0.30
2023-01-29T01:30:13.669Z,-0.36
2023-01-29T01:32:41.812Z,-0.34
2023-01-29T01:35:11.203Z,-0.32
2023-01-29T01:37:39.384Z,-0.27
2023-01-29T01:40:13.000Z,-0.23
2023-01-29T01:42:41.393Z,-0.28
2023-01-29T01:45:21.391Z,-0.39
2023-01-29T01:47:53.225Z,-0.48
2023-01-29T01:50:25.958Z,-0.53
2023-01-29T01:53:03.755Z,-0.50
2023-01-29T01:55:35.415Z,-0.42
2023-01-29T01:58:10.992Z,-0.32
2023-01-29T02:00:40.260Z,-0.26
2023-01-29T02:03:26.296Z,-0.21
2023-01-29T02:06:16.495Z,-0.15
2023-01-29T02:09:10.004Z,-0.20
2023-01-29T02:11:40.106Z,-0.23
2023-01-29T02:14:08.470Z,-0.21
2023-01-29T02:16:37.446Z,-0.20
2023-01-29T02:19:08.471Z,-0.17
2023-01-29T02:22:13.289Z,-0.17
2023-01-29T02:25:13.262Z,-0.29
2023-01-29T02:28:17.316Z,-0.37
2023-01-29T02:30:51.860Z,-0.39
2023-01-29T02:33:27.580Z,-0.41
2023-01-29T02:36:00.851Z,-0.44
2023-01-29T02:38:37.630Z,-0.50
2023-01-29T02:41:14.926Z,-0.50
2023-01-29T02:43:47.996Z,-0.51
2023-01-29T02:46:21.251Z,-0.53
2023-01-29T02:48:56.976Z,-0.53
2023-01-29T02:51:31.439Z,-0.55
2023-01-29T02:54:05.374Z,-0.56
2023-01-29T02:56:40.597Z,-0.52
2023-01-29T02:59:14.024Z,-0.52
2023-01-29T03:01:48.389Z,-0.53
2023-01-29T03:04:24.137Z,-0.56
2023-01-29T03:06:58.501Z,-0.55
2023-01-29T03:09:32.121Z,-0.50
2023-01-29T03:12:19.932Z,-0.49
2023-01-29T03:15:10.011Z,-0.52
2023-01-29T03:17:43.085Z,-0.56
2023-01-29T03:20:17.865Z,-0.54
2023-01-29T03:22:51.733Z,-0.56
2023-01-29T03:25:40.667Z,-0.56
2023-01-29T03:28:29.024Z,-0.58
2023-01-29T03:31:22.067Z,-0.59
2023-01-29T03:33:52.856Z,-0.63
2023-01-29T03:36:28.130Z,-0.58
2023-01-29T03:38:56.125Z,-0.58
2023-01-29T03:41:29.381Z,-0.60
2023-01-29T03:44:15.500Z,-0.63
2023-01-29T03:46:53.784Z,-0.63
2023-01-29T03:49:31.521Z,-0.63
2023-01-29T03:52:05.629Z,-0.65
2023-01-29T03:54:42.042Z,-0.66
2023-01-29T03:57:16.660Z,-0.67
2023-01-29T03:59:51.590Z,-0.73
2023-01-29T04:02:28.166Z,-0.80
2023-01-29T04:05:01.077Z,-0.96
2023-01-29T04:07:33.622Z,-1.08
2023-01-29T04:10:06.817Z,-1.16
2023-01-29T04:12:39.543Z,-1.22
2023-01-29T04:15:12.269Z,-1.21
2023-01-29T04:17:44.970Z,-1.23
2023-01-29T04:20:13.804Z,-1.29
2023-01-29T04:22:46.473Z,-1.27
2023-01-29T04:25:19.532Z,-1.24
2023-01-29T04:27:58.617Z,-1.29
2023-01-29T04:30:36.671Z,-1.53
2023-01-29T04:33:18.556Z,-1.69
2023-01-29T04:36:02.172Z,-1.88
2023-01-29T04:38:41.700Z,-2.16
2023-01-29T04:41:15.546Z,-2.34
2023-01-29T04:43:49.336Z,-2.51
2023-01-29T04:46:21.795Z,-2.66
2023-01-29T04:49:05.385Z,-2.75
2023-01-29T04:51:43.317Z,-2.86
2023-01-29T04:54:19.835Z,-2.88
2023-01-29T04:56:56.505Z,-2.85
2023-01-29T04:59:30.071Z,-2.86
2023-01-29T05:02:00.473Z,-2.90
2023-01-29T05:04:33.505Z,-3.01
2023-01-29T05:07:05.532Z,-3.11
2023-01-29T05:09:35.503Z,-3.24
2023-01-29T05:12:04.801Z,-3.33
2023-01-29T05:14:36.759Z,-3.34
2023-01-29T05:17:10.583Z,-3.28
2023-01-29T05:19:40.061Z,-3.28
2023-01-29T05:22:11.821Z,-3.18
2023-01-29T05:24:39.904Z,-3.10
2023-01-29T05:27:26.153Z,-3.01
2023-01-29T05:29:55.608Z,-2.95
2023-01-29T05:32:23.678Z,-2.90
2023-01-29T05:34:53.021Z,-2.88
2023-01-29T05:37:21.131Z,-2.92
2023-01-29T05:39:49.121Z,-3.00
2023-01-29T05:42:17.226Z,-3.04
2023-01-29T05:44:45.284Z,-3.05
2023-01-29T05:47:13.433Z,-3.10
2023-01-29T05:49:41.511Z,-3.09
2023-01-29T05:52:11.035Z,-3.03
2023-01-29T05:54:39.146Z,-2.88
2023-01-29T05:57:07.195Z,-2.80
2023-01-29T05:59:35.228Z,-2.57
2023-01-29T06:02:03.281Z,-2.43
2023-01-29T06:04:31.265Z,-2.36
2023-01-29T06:06:59.377Z,-2.22
2023-01-29T06:09:28.772Z,-2.24
2023-01-29T06:11:56.819Z,-2.22
2023-01-29T06:14:24.909Z,-2.09
2023-01-29T06:16:52.950Z,-1.96
2023-01-29T06:19:21.641Z,-1.91
2023-01-29T06:21:49.718Z,-1.86
2023-01-29T06:24:17.970Z,-1.84
2023-01-29T06:26:47.464Z,-1.89
2023-01-29T06:29:15.726Z,-1.93
2023-01-29T06:31:43.816Z,-1.91
2023-01-29T06:34:12.010Z,-1.88
2023-01-29T06:36:41.647Z,-1.85
2023-01-29T06:39:09.714Z,-1.80
2023-01-29T06:41:37.859Z,-1.90
2023-01-29T06:44:07.518Z,-2.01
2023-01-29T06:46:35.539Z,-2.07
2023-01-29T06:49:03.648Z,-2.06
2023-01-29T06:51:31.720Z,-2.00
2023-01-29T06:53:59.781Z,-1.89
2023-01-29T06:56:27.835Z,-1.83
2023-01-29T06:58:55.838Z,-1.77
2023-01-29T07:01:35.749Z,-1.81
2023-01-29T07:04:04.733Z,-1.84
2023-01-29T07:06:32.933Z,-1.94
2023-01-29T07:09:01.106Z,-2.07
2023-01-29T07:11:29.100Z,-2.12
2023-01-29T07:13:57.149Z,-2.25
2023-01-29T07:16:27.360Z,-2.35
2023-01-29T07:18:55.531Z,-2.37
2023-01-29T07:21:23.597Z,-2.37
2023-01-29T07:23:51.974Z,-2.36
2023-01-29T07:26:20.227Z,-2.35
2023-01-29T07:28:48.267Z,-2.28
2023-01-29T07:31:16.649Z,-2.16
2023-01-29T07:33:46.604Z,-2.06
2023-01-29T07:36:15.453Z,-1.89
2023-01-29T07:38:43.456Z,-1.74
2023-01-29T07:41:12.939Z,-1.62
2023-01-29T07:43:41.069Z,-1.54
2023-01-29T07:46:09.445Z,-1.45
2023-01-29T07:48:37.718Z,-1.40
2023-01-29T07:51:07.505Z,-1.40
2023-01-29T07:53:35.914Z,-1.43
2023-01-29T07:56:04.202Z,-1.46
2023-01-29T07:58:32.319Z,-1.61
2023-01-29T08:01:00.314Z,-1.74
2023-01-29T08:03:28.463Z,-1.83
2023-01-29T08:05:56.554Z,-1.93
2023-01-29T08:08:26.393Z,-1.94
2023-01-29T08:10:54.484Z,-1.92
2023-01-29T08:13:22.485Z,-1.94
2023-01-29T08:15:50.558Z,-2.00
2023-01-29T08:18:18.545Z,-2.01
2023-01-29T08:20:46.564Z,-2.11
2023-01-29T08:23:16.494Z,-2.18
2023-01-29T08:25:46.018Z,-2.17
2023-01-29T08:28:14.229Z,-2.24
2023-01-29T08:30:44.150Z,-2.26
2023-01-29T08:33:12.554Z,-2.31
2023-01-29T08:35:41.354Z,-2.33
2023-01-29T08:38:10.750Z,-2.34
2023-01-29T08:40:38.960Z,-2.40
2023-01-29T08:43:10.010Z,-2.45
2023-01-29T08:45:41.160Z,-2.56
2023-01-29T08:48:10.064Z,-2.71
2023-01-29T08:50:39.008Z,-2.98
2023-01-29T08:53:08.725Z,-3.20
2023-01-29T08:55:37.759Z,-3.42
2023-01-29T08:58:06.395Z,-3.51
2023-01-29T09:00:36.538Z,-3.51
2023-01-29T09:03:05.213Z,-3.42
2023-01-29T09:05:33.371Z,-3.41
2023-01-29T09:08:01.469Z,-3.46
2023-01-29T09:10:29.470Z,-3.45
2023-01-29T09:12:57.581Z,-3.34
2023-01-29T09:15:25.985Z,-3.27
2023-01-29T09:17:55.438Z,-3.17
2023-01-29T09:20:23.849Z,-3.08
2023-01-29T09:22:53.701Z,-2.96
2023-01-29T09:25:21.785Z,-2.79
2023-01-29T09:27:49.791Z,-2.68
2023-01-29T09:30:19.095Z,-2.59
2023-01-29T09:32:53.654Z,-2.41
2023-01-29T09:35:24.294Z,-2.15
2023-01-29T09:37:53.017Z,-1.89
2023-01-29T09:40:27.215Z,-1.66
2023-01-29T09:43:02.447Z,-1.53
2023-01-29T09:45:31.657Z,-1.47
2023-01-29T09:48:01.837Z,-1.40
2023-01-29T09:50:34.524Z,-1.34
2023-01-29T09:53:09.848Z,-1.32
2023-01-29T09:55:43.869Z,-1.26
2023-01-29T09:58:19.715Z,-1.17
2023-01-29T10:00:58.316Z,-1.12
2023-01-29T10:03:45.761Z,-1.10
2023-01-29T10:06:29.456Z,-1.08
2023-01-29T10:09:42.116Z,-1.26
2023-01-29T10:12:26.086Z,-1.30
2023-01-29T10:15:04.136Z,-1.22
2023-01-29T10:17:56.770Z,-1.10
2023-01-29T10:20:44.724Z,-0.91
2023-01-29T10:23:22.899Z,-0.75
2023-01-29T10:25:51.182Z,-0.60
2023-01-29T10:28:22.129Z,-0.50
2023-01-29T10:30:52.220Z,-0.37
2023-01-29T10:33:26.147Z,-0.27
2023-01-29T10:35:59.426Z,-0.20
2023-01-29T10:38:40.070Z,-0.13
2023-01-29T10:41:22.137Z,-0.08
2023-01-29T10:44:02.848Z,-0.05
2023-01-29T10:46:46.686Z,-0.05
2023-01-29T10:49:31.042Z,-0.03
2023-01-29T10:52:20.033Z,0.00
2023-01-29T10:55:02.033Z,0.02
2023-01-29T10:57:43.441Z,0.05
2023-01-29T11:00:15.710Z,0.05
2023-01-29T11:02:46.463Z,0.05
2023-01-29T11:05:22.723Z,0.11
2023-01-29T11:08:02.047Z,0.38
2023-01-29T11:10:34.463Z,0.80
2023-01-29T11:13:02.828Z,1.19
2023-01-29T11:15:35.001Z,1.55
2023-01-29T11:18:07.413Z,1.85
2023-01-29T11:20:35.580Z,2.15
2023-01-29T11:23:04.001Z,2.38
2023-01-29T11:25:34.110Z,2.61
2023-01-29T11:28:05.409Z,2.80
2023-01-29T11:30:36.780Z,2.97
2023-01-29T11:33:11.514Z,3.09
2023-01-29T11:35:39.744Z,3.15
2023-01-29T11:38:11.122Z,3.32
2023-01-29T11:40:44.821Z,3.48
2023-01-29T11:43:31.098Z,3.51
2023-01-29T11:46:02.059Z,3.56
2023-01-29T11:48:41.862Z,3.60
2023-01-29T11:51:13.440Z,3.61
2023-01-29T11:53:44.514Z,3.63
2023-01-29T11:56:26.909Z,3.65
2023-01-29T11:58:57.703Z,3.65
2023-01-29T12:01:33.862Z,3.57
2023-01-29T12:04:02.997Z,3.53
2023-01-29T12:06:36.678Z,3.52
2023-01-29T12:09:11.510Z,3.53
2023-01-29T12:11:41.063Z,3.57
2023-01-29T12:14:28.198Z,3.58
2023-01-29T12:17:00.957Z,3.65
2023-01-29T12:19:38.089Z,3.63
2023-01-29T12:22:12.146Z,3.63
2023-01-29T12:24:46.068Z,3.62
2023-01-29T12:27:22.418Z,3.61
2023-01-29T12:29:57.769Z,3.59
2023-01-29T12:32:33.878Z,3.59
2023-01-29T12:35:07.872Z,3.63
2023-01-29T12:37:41.799Z,3.69
2023-01-29T12:40:15.317Z,3.78
2023-01-29T12:42:49.964Z,3.91
2023-01-29T12:45:20.094Z,4.04
2023-01-29T12:47:51.260Z,4.14
2023-01-29T12:50:23.204Z,4.21
2023-01-29T12:52:55.061Z,4.32
2023-01-29T12:55:26.701Z,4.38
2023-01-29T12:57:59.850Z,4.43
2023-01-29T13:00:31.276Z,4.45
2023-01-29T13:03:05.315Z,4.48
2023-01-29T13:05:40.931Z,4.55
2023-01-29T13:08:11.822Z,4.59
2023-01-29T13:10:44.774Z,4.62
2023-01-29T13:13:20.632Z,4.68
2023-01-29T13:15:49.690Z,4.69
2023-01-29T13:18:41.238Z,4.71
2023-01-29T13:21:15.588Z,4.69
2023-01-29T13:23:48.189Z,4.65
2023-01-29T13:26:20.037Z,4.64
2023-01-29T13:28:50.590Z,4.66
2023-01-29T13:31:28.655Z,4.72
2023-01-29T13:34:05.675Z,4.76
2023-01-29T13:36:34.363Z,4.82
2023-01-29T13:39:05.046Z,4.89
2023-01-29T13:41:36.004Z,4.96
2023-01-29T13:44:08.153Z,5.05
2023-01-29T13:46:42.475Z,5.16
2023-01-29T13:49:27.204Z,5.27
2023-01-29T13:51:55.553Z,5.34
2023-01-29T13:54:28.090Z,5.42
2023-01-29T13:57:01.357Z,5.45
2023-01-29T13:59:55.270Z,5.48
2023-01-29T14:02:26.422Z,5.53
2023-01-29T14:05:39.471Z,5.53
2023-01-29T14:08:08.128Z,5.50
2023-01-29T14:10:37.351Z,5.46
2023-01-29T14:13:38.449Z,5.47
2023-01-29T14:16:30.056Z,5.50
2023-01-29T14:19:01.778Z,5.51
2023-01-29T14:21:33.635Z,5.46
2023-01-29T14:24:11.572Z,5.37
2023-01-29T14:26:46.155Z,5.28
2023-01-29T14:29:39.978Z,5.22
2023-01-29T14:32:15.980Z,5.19
2023-01-29T14:34:47.734Z,5.12
2023-01-29T14:37:30.217Z,4.99
2023-01-29T14:40:00.897Z,4.94
2023-01-29T14:42:35.469Z,4.98
2023-01-29T14:45:12.484Z,5.01
2023-01-29T14:48:02.111Z,4.95
2023-01-29T14:50:46.361Z,4.92
2023-01-29T14:53:20.979Z,4.94
2023-01-29T14:55:54.187Z,4.97
2023-01-29T14:58:27.393Z,5.00
2023-01-29T15:00:59.383Z,5.08
2023-01-29T15:03:37.285Z,5.12
2023-01-29T15:06:08.669Z,5.16
2023-01-29T15:08:42.039Z,5.22
2023-01-29T15:11:36.843Z,5.26
2023-01-29T15:14:18.999Z,5.15
2023-01-29T15:16:57.518Z,5.02
2023-01-29T15:19:29.796Z,5.01
2023-01-29T15:22:12.652Z,5.00
2023-01-29T15:24:43.629Z,4.95
2023-01-29T15:27:16.990Z,4.86
2023-01-29T15:29:49.480Z,4.80
2023-01-29T15:32:30.734Z,4.80
2023-01-29T15:35:00.535Z,4.76
2023-01-29T15:37:31.129Z,4.76
2023-01-29T15:40:01.156Z,4.81
2023-01-29T15:42:30.394Z,4.82
2023-01-29T15:44:58.428Z,4.76
2023-01-29T15:47:32.008Z,4.66
2023-01-29T15:50:01.672Z,4.62
2023-01-29T15:52:35.350Z,4.61
2023-01-29T15:55:07.017Z,4.61
2023-01-29T15:57:40.510Z,4.61
2023-01-29T16:00:21.194Z,4.58
2023-01-29T16:02:49.629Z,4.58
2023-01-29T16:05:20.570Z,4.55
2023-01-29T16:07:49.788Z,4.47
2023-01-29T16:10:21.513Z,4.43
2023-01-29T16:12:52.574Z,4.30
2023-01-29T16:15:28.390Z,4.18
2023-01-29T16:17:57.063Z,4.15
2023-01-29T16:20:35.114Z,4.11
2023-01-29T16:23:03.695Z,4.06
2023-01-29T16:25:35.261Z,4.04
2023-01-29T16:28:06.251Z,3.99
2023-01-29T16:30:34.607Z,3.93
2023-01-29T16:33:04.869Z,3.92
2023-01-29T16:35:34.231Z,3.86
2023-01-29T16:38:05.948Z,3.81
2023-01-29T16:40:38.068Z,3.81
2023-01-29T16:43:42.668Z,3.81
2023-01-29T16:46:21.136Z,3.81
2023-01-29T16:48:49.275Z,3.79
2023-01-29T16:51:25.254Z,3.79
2023-01-29T16:54:02.287Z,3.74
2023-01-29T16:56:33.869Z,3.68
2023-01-29T16:59:05.624Z,3.60
2023-01-29T17:01:36.851Z,3.56
2023-01-29T17:04:11.467Z,3.56
2023-01-29T17:06:48.978Z,3.58
2023-01-29T17:09:25.573Z,3.62
2023-01-29T17:11:58.828Z,3.66
2023-01-29T17:14:27.490Z,3.71
2023-01-29T17:16:57.159Z,3.75
2023-01-29T17:19:26.009Z,3.78
2023-01-29T17:21:54.329Z,3.79
2023-01-29T17:24:22.397Z,3.78
2023-01-29T17:26:50.532Z,3.72
2023-01-29T17:29:22.306Z,3.71
2023-01-29T17:31:50.343Z,3.73
2023-01-29T17:34:18.766Z,3.76
2023-01-29T17:36:47.135Z,3.78
2023-01-29T17:39:19.166Z,3.77
2023-01-29T17:41:50.562Z,3.72
2023-01-29T17:44:20.502Z,3.66
2023-01-29T17:46:49.611Z,3.63
2023-01-29T17:49:25.100Z,3.60
2023-01-29T17:51:53.643Z,3.49
2023-01-29T17:54:22.536Z,3.36
2023-01-29T17:56:51.199Z,3.32
2023-01-29T17:59:22.836Z,3.30
2023-01-29T18:01:51.645Z,3.16
2023-01-29T18:04:22.230Z,2.94
2023-01-29T18:06:51.730Z,2.80
2023-01-29T18:09:21.610Z,2.76
2023-01-29T18:11:51.019Z,2.73
2023-01-29T18:14:20.643Z,2.68
2023-01-29T18:16:48.839Z,2.62
2023-01-29T18:19:22.077Z,2.66
2023-01-29T18:21:50.330Z,2.61
2023-01-29T18:24:20.500Z,2.62
2023-01-29T18:26:48.619Z,2.62
2023-01-29T18:29:16.708Z,2.65
2023-01-29T18:31:48.684Z,2.67
2023-01-29T18:34:16.675Z,2.67
2023-01-29T18:36:47.758Z,2.64
2023-01-29T18:39:16.090Z,2.59
2023-01-29T18:41:44.197Z,2.56
2023-01-29T18:44:12.387Z,2.55
2023-01-29T18:46:40.368Z,2.54
2023-01-29T18:49:10.806Z,2.53
2023-01-29T18:51:38.812Z,2.50
2023-01-29T18:54:06.914Z,2.49
2023-01-29T18:56:34.956Z,2.48
2023-01-29T18:59:04.929Z,2.46
2023-01-29T19:01:34.609Z,2.49
2023-01-29T19:04:02.832Z,2.51
2023-01-29T19:06:34.972Z,2.55
2023-01-29T19:09:04.650Z,2.55
2023-01-29T19:11:32.830Z,2.53
2023-01-29T19:14:00.886Z,2.47
2023-01-29T19:16:28.894Z,2.39
2023-01-29T19:18:57.089Z,2.32
2023-01-29T19:21:25.174Z,2.13
2023-01-29T19:23:54.723Z,1.95
2023-01-29T19:26:22.941Z,1.87
2023-01-29T19:28:51.177Z,1.78
2023-01-29T19:31:19.354Z,1.70
2023-01-29T19:33:47.374Z,1.67
2023-01-29T19:36:15.420Z,1.64
2023-01-29T19:38:43.488Z,1.57
2023-01-29T19:41:13.035Z,1.50
2023-01-29T19:43:42.108Z,1.44
2023-01-29T19:46:11.162Z,1.36
2023-01-29T19:48:39.354Z,1.26
2023-01-29T19:51:09.643Z,1.18
2023-01-29T19:53:38.589Z,1.15
2023-01-29T19:56:08.823Z,1.04
2023-01-29T19:58:38.528Z,1.03
2023-01-29T20:01:09.348Z,1.10
2023-01-29T20:03:38.159Z,1.16
2023-01-29T20:06:07.508Z,1.20
2023-01-29T20:08:36.772Z,1.26
2023-01-29T20:11:05.641Z,1.26
2023-01-29T20:13:34.242Z,1.30
2023-01-29T20:16:05.464Z,1.37
2023-01-29T20:18:34.076Z,1.44
2023-01-29T20:21:08.099Z,1.48
2023-01-29T20:23:38.614Z,1.53
2023-01-29T20:26:08.355Z,1.58
2023-01-29T20:28:36.831Z,1.61
2023-01-29T20:31:07.749Z,1.59
2023-01-29T20:33:38.888Z,1.44
2023-01-29T20:36:10.072Z,1.29
2023-01-29T20:38:38.367Z,1.20
2023-01-29T20:41:08.142Z,1.18
2023-01-29T20:43:36.474Z,1.22
2023-01-29T20:46:04.992Z,1.18
2023-01-29T20:48:34.663Z,1.14
2023-01-29T20:51:09.443Z,1.09
2023-01-29T20:53:38.297Z,1.05
2023-01-29T20:56:07.759Z,0.99
2023-01-29T20:58:36.217Z,0.89
2023-01-29T21:01:09.008Z,0.89
2023-01-29T21:03:39.223Z,0.82
2023-01-29T21:06:08.770Z,0.73
2023-01-29T21:08:37.164Z,0.63
2023-01-29T21:11:06.301Z,0.60
2023-01-29T21:13:34.442Z,0.59
2023-01-29T21:16:02.664Z,0.61
2023-01-29T21:18:31.739Z,0.61
2023-01-29T21:21:01.202Z,0.57
2023-01-29T21:23:29.419Z,0.51
2023-01-29T21:26:02.621Z,0.46
2023-01-29T21:28:30.807Z,0.40
2023-01-29T21:31:06.523Z,0.36
2023-01-29T21:33:35.377Z,0.33
2023-01-29T21:36:05.673Z,0.31
2023-01-29T21:38:33.965Z,0.31
2023-01-29T21:41:02.997Z,0.28
2023-01-29T21:43:30.444Z,0.29
2023-01-29T21:45:59.337Z,0.31
2023-01-29T21:48:27.752Z,0.33
2023-01-29T21:50:55.918Z,0.30
2023-01-29T21:53:25.362Z,0.32
2023-01-29T21:55:53.343Z,0.36
2023-01-29T21:58:21.360Z,0.45
2023-01-29T22:00:49.817Z,0.51
2023-01-29T22:03:18.019Z,0.57
2023-01-29T22:05:46.102Z,0.64
2023-01-29T22:08:14.119Z,0.70
2023-01-29T22:10:43.536Z,0.69
2023-01-29T22:13:11.711Z,0.69
2023-01-29T22:15:39.854Z,0.70
2023-01-29T22:18:07.861Z,0.75
2023-01-29T22:20:36.737Z,0.79
2023-01-29T22:23:04.861Z,0.82
2023-01-29T22:25:33.556Z,0.88
2023-01-29T22:28:02.948Z,0.94
2023-01-29T22:30:30.966Z,0.94
2023-01-29T22:32:58.914Z,0.93
2023-01-29T22:35:27.050Z,0.92
2023-01-29T22:37:55.307Z,0.89
2023-01-29T22:40:23.458Z,0.79
2023-01-29T22:42:51.414Z,0.69
2023-01-29T22:45:20.960Z,0.61
2023-01-29T22:47:49.012Z,0.54
2023-01-29T22:50:17.480Z,0.51
2023-01-29T22:52:54.039Z,0.49
2023-01-29T22:55:22.590Z,0.44
2023-01-29T22:57:51.176Z,0.42
2023-01-29T23:00:21.753Z,0.42
2023-01-29T23:02:50.082Z,0.36
2023-01-29T23:05:18.769Z,0.31
2023-01-29T23:07:46.845Z,0.21
2023-01-29T23:10:15.987Z,0.15
2023-01-29T23:12:44.307Z,0.16
2023-01-29T23:15:12.628Z,0.10
2023-01-29T23:17:41.966Z,0.14
2023-01-29T23:20:11.106Z,0.20
2023-01-29T23:22:39.272Z,0.26
2023-01-29T23:25:08.191Z,0.24
2023-01-29T23:27:35.447Z,0.13
2023-01-29T23:30:03.446Z,0.12
2023-01-29T23:32:31.599Z,0.12
2023-01-29T23:35:00.930Z,0.14
2023-01-29T23:37:28.936Z,0.14
2023-01-29T23:39:57.048Z,0.05
2023-01-29T23:42:25.064Z,-0.04
2023-01-29T23:44:53.210Z,-0.06
2023-01-29T23:47:21.198Z,-0.18
2023-01-29T23:49:49.339Z,-0.37
2023-01-29T23:52:18.805Z,-0.54
2023-01-29T23:54:46.737Z,-0.71
2023-01-29T23:57:14.736Z,-0.85
2023-01-29T23:59:42.782Z,-0.96
